sensor_id;sensor_type;location;lat;lon;timestamp;pressure;altitude;pressure_sealevel;temperature;humidity
25238;BME280;13185;50.872;5.306;2022-08-19T00:01:40;101002.56;;;19.47;91.02
25238;BME280;13185;50.872;5.306;2022-08-19T00:04:08;101003.88;;;19.43;91.12
25238;BME280;13185;50.872;5.306;2022-08-19T00:06:36;101012.34;;;19.40;91.37
25238;BME280;13185;50.872;5.306;2022-08-19T00:09:04;101007.19;;;19.37;91.22
25238;BME280;13185;50.872;5.306;2022-08-19T00:11:31;101016.53;;;19.35;91.26
25238;BME280;13185;50.872;5.306;2022-08-19T00:13:57;101024.31;;;19.29;91.64
25238;BME280;13185;50.872;5.306;2022-08-19T00:16:23;101023.56;;;19.27;91.49
25238;BME280;13185;50.872;5.306;2022-08-19T00:18:49;101027.75;;;19.22;91.92
25238;BME280;13185;50.872;5.306;2022-08-19T00:21:15;101020.34;;;19.14;92.22
25238;BME280;13185;50.872;5.306;2022-08-19T00:23:42;101014.38;;;19.11;92.33
25238;BME280;13185;50.872;5.306;2022-08-19T00:26:09;101017.69;;;19.04;92.65
25238;BME280;13185;50.872;5.306;2022-08-19T00:28:35;101023.97;;;19.05;92.85
25238;BME280;13185;50.872;5.306;2022-08-19T00:31:02;101018.84;;;19.02;93.39
25238;BME280;13185;50.872;5.306;2022-08-19T00:33:30;101022.56;;;19.01;93.00
25238;BME280;13185;50.872;5.306;2022-08-19T00:35:59;101013.59;;;18.91;93.19
25238;BME280;13185;50.872;5.306;2022-08-19T00:38:25;101024.78;;;18.88;93.63
25238;BME280;13185;50.872;5.306;2022-08-19T00:40:50;101021.22;;;18.87;94.05
25238;BME280;13185;50.872;5.306;2022-08-19T00:43:21;101017.91;;;18.84;94.63
25238;BME280;13185;50.872;5.306;2022-08-19T00:45:47;101023.50;;;18.82;94.75
25238;BME280;13185;50.872;5.306;2022-08-19T00:48:14;101019.78;;;18.83;94.99
25238;BME280;13185;50.872;5.306;2022-08-19T00:50:40;101022.50;;;18.83;94.94
25238;BME280;13185;50.872;5.306;2022-08-19T00:53:10;101017.38;;;18.80;95.04
25238;BME280;13185;50.872;5.306;2022-08-19T00:55:37;101019.22;;;18.80;95.26
25238;BME280;13185;50.872;5.306;2022-08-19T00:58:10;101007.66;;;18.78;95.23
25238;BME280;13185;50.872;5.306;2022-08-19T01:00:37;101016.94;;;18.75;94.95
25238;BME280;13185;50.872;5.306;2022-08-19T01:03:12;101015.53;;;18.71;94.52
25238;BME280;13185;50.872;5.306;2022-08-19T01:05:39;101012.97;;;18.69;94.86
25238;BME280;13185;50.872;5.306;2022-08-19T01:08:06;101008.84;;;18.65;95.06
25238;BME280;13185;50.872;5.306;2022-08-19T01:10:37;101007.22;;;18.63;95.77
25238;BME280;13185;50.872;5.306;2022-08-19T01:13:04;101008.38;;;18.60;96.41
25238;BME280;13185;50.872;5.306;2022-08-19T01:15:43;101008.69;;;18.57;96.50
25238;BME280;13185;50.872;5.306;2022-08-19T01:18:12;101018.84;;;18.55;96.76
25238;BME280;13185;50.872;5.306;2022-08-19T01:20:40;101016.41;;;18.52;96.96
25238;BME280;13185;50.872;5.306;2022-08-19T01:23:07;101019.44;;;18.49;97.24
25238;BME280;13185;50.872;5.306;2022-08-19T01:28:20;101019.88;;;18.44;96.95
25238;BME280;13185;50.872;5.306;2022-08-19T01:30:46;101030.00;;;18.42;96.85
25238;BME280;13185;50.872;5.306;2022-08-19T01:33:13;101027.59;;;18.39;96.66
25238;BME280;13185;50.872;5.306;2022-08-19T01:35:39;101033.31;;;18.36;96.80
25238;BME280;13185;50.872;5.306;2022-08-19T01:38:07;101030.88;;;18.33;97.06
25238;BME280;13185;50.872;5.306;2022-08-19T01:40:36;101032.19;;;18.29;97.30
25238;BME280;13185;50.872;5.306;2022-08-19T01:43:03;101032.34;;;18.28;97.47
25238;BME280;13185;50.872;5.306;2022-08-19T01:45:31;101040.31;;;18.29;99.34
25238;BME280;13185;50.872;5.306;2022-08-19T01:47:58;101042.75;;;18.32;100.00
25238;BME280;13185;50.872;5.306;2022-08-19T01:50:24;101048.03;;;18.34;100.00
25238;BME280;13185;50.872;5.306;2022-08-19T01:52:51;101046.03;;;18.36;100.00
25238;BME280;13185;50.872;5.306;2022-08-19T01:55:19;101049.63;;;18.36;100.00
25238;BME280;13185;50.872;5.306;2022-08-19T01:57:48;101047.06;;;18.35;100.00
25238;BME280;13185;50.872;5.306;2022-08-19T02:00:18;101048.75;;;18.36;100.00
25238;BME280;13185;50.872;5.306;2022-08-19T02:02:43;101049.31;;;18.39;100.00
25238;BME280;13185;50.872;5.306;2022-08-19T02:05:09;101045.75;;;18.39;100.00
25238;BME280;13185;50.872;5.306;2022-08-19T02:07:36;101043.59;;;18.42;100.00
25238;BME280;13185;50.872;5.306;2022-08-19T02:10:04;101044.44;;;18.43;100.00
25238;BME280;13185;50.872;5.306;2022-08-19T02:12:29;101044.44;;;18.43;100.00
25238;BME280;13185;50.872;5.306;2022-08-19T02:14:55;101051.72;;;18.42;100.00
25238;BME280;13185;50.872;5.306;2022-08-19T02:17:20;101054.44;;;18.42;100.00
25238;BME280;13185;50.872;5.306;2022-08-19T02:19:45;101049.00;;;18.42;100.00
25238;BME280;13185;50.872;5.306;2022-08-19T02:22:11;101050.16;;;18.40;100.00
25238;BME280;13185;50.872;5.306;2022-08-19T02:24:36;101061.03;;;18.40;100.00
25238;BME280;13185;50.872;5.306;2022-08-19T02:27:02;101054.91;;;18.38;100.00
25238;BME280;13185;50.872;5.306;2022-08-19T02:29:28;101061.34;;;18.37;100.00
25238;BME280;13185;50.872;5.306;2022-08-19T02:31:54;101065.75;;;18.38;100.00
25238;BME280;13185;50.872;5.306;2022-08-19T02:34:20;101060.31;;;18.38;100.00
25238;BME280;13185;50.872;5.306;2022-08-19T02:36:45;101057.63;;;18.38;100.00
25238;BME280;13185;50.872;5.306;2022-08-19T02:39:11;101053.19;;;18.37;100.00
25238;BME280;13185;50.872;5.306;2022-08-19T02:41:36;101054.03;;;18.37;100.00
25238;BME280;13185;50.872;5.306;2022-08-19T02:44:02;101056.75;;;18.37;100.00
25238;BME280;13185;50.872;5.306;2022-08-19T02:46:31;101056.75;;;18.37;100.00
25238;BME280;13185;50.872;5.306;2022-08-19T02:49:00;101057.75;;;18.36;100.00
25238;BME280;13185;50.872;5.306;2022-08-19T02:51:33;101053.44;;;18.34;100.00
25238;BME280;13185;50.872;5.306;2022-08-19T02:53:58;101062.59;;;18.33;100.00
25238;BME280;13185;50.872;5.306;2022-08-19T02:56:25;101061.03;;;18.30;100.00
25238;BME280;13185;50.872;5.306;2022-08-19T02:58:55;101062.34;;;18.26;100.00
25238;BME280;13185;50.872;5.306;2022-08-19T03:01:25;101064.34;;;18.24;100.00
25238;BME280;13185;50.872;5.306;2022-08-19T03:03:51;101058.19;;;18.22;100.00
25238;BME280;13185;50.872;5.306;2022-08-19T03:06:17;101055.63;;;18.21;100.00
25238;BME280;13185;50.872;5.306;2022-08-19T03:08:44;101061.03;;;18.21;100.00
25238;BME280;13185;50.872;5.306;2022-08-19T03:13:43;101056.22;;;18.14;100.00
25238;BME280;13185;50.872;5.306;2022-08-19T03:16:09;101059.19;;;18.11;100.00
25238;BME280;13185;50.872;5.306;2022-08-19T03:18:35;101057.63;;;18.09;100.00
25238;BME280;13185;50.872;5.306;2022-08-19T03:21:00;101056.91;;;18.07;100.00
25238;BME280;13185;50.872;5.306;2022-08-19T03:23:26;101057.78;;;18.07;100.00
25238;BME280;13185;50.872;5.306;2022-08-19T03:25:52;101058.63;;;18.08;100.00
25238;BME280;13185;50.872;5.306;2022-08-19T03:28:20;101061.34;;;18.08;100.00
25238;BME280;13185;50.872;5.306;2022-08-19T03:31:04;101058.78;;;18.06;100.00
25238;BME280;13185;50.872;5.306;2022-08-19T03:33:31;101047.22;;;18.04;100.00
25238;BME280;13185;50.872;5.306;2022-08-19T03:38:29;101066.47;;;18.01;100.00
25238;BME280;13185;50.872;5.306;2022-08-19T03:40:54;101065.75;;;17.99;100.00
25238;BME280;13185;50.872;5.306;2022-08-19T03:43:20;101070.63;;;17.96;100.00
25238;BME280;13185;50.872;5.306;2022-08-19T03:45:45;101063.91;;;17.90;100.00
25238;BME280;13185;50.872;5.306;2022-08-19T03:48:11;101062.03;;;17.91;100.00
25238;BME280;13185;50.872;5.306;2022-08-19T03:50:40;101058.47;;;17.90;100.00
25238;BME280;13185;50.872;5.306;2022-08-19T03:53:06;101071.03;;;17.91;100.00
25238;BME280;13185;50.872;5.306;2022-08-19T03:55:32;101071.19;;;17.89;100.00
25238;BME280;13185;50.872;5.306;2022-08-19T03:57:57;101065.75;;;17.89;100.00
25238;BME280;13185;50.872;5.306;2022-08-19T04:00:23;101069.63;;;17.87;100.00
25238;BME280;13185;50.872;5.306;2022-08-19T04:02:49;101066.03;;;17.86;100.00
25238;BME280;13185;50.872;5.306;2022-08-19T04:05:14;101062.78;;;17.83;100.00
25238;BME280;13185;50.872;5.306;2022-08-19T04:07:40;101067.44;;;17.81;100.00
25238;BME280;13185;50.872;5.306;2022-08-19T04:10:06;101066.03;;;17.77;100.00
25238;BME280;13185;50.872;5.306;2022-08-19T04:12:31;101060.19;;;17.72;100.00
25238;BME280;13185;50.872;5.306;2022-08-19T04:14:57;101054.28;;;17.67;100.00
25238;BME280;13185;50.872;5.306;2022-08-19T04:17:23;101055.56;;;17.63;100.00
25238;BME280;13185;50.872;5.306;2022-08-19T04:19:49;101060.81;;;17.54;100.00
25238;BME280;13185;50.872;5.306;2022-08-19T04:22:14;101053.22;;;17.48;100.00
25238;BME280;13185;50.872;5.306;2022-08-19T04:24:40;101051.25;;;17.41;100.00
25238;BME280;13185;50.872;5.306;2022-08-19T04:27:05;101049.06;;;17.35;100.00
25238;BME280;13185;50.872;5.306;2022-08-19T04:29:32;101049.50;;;17.30;100.00
25238;BME280;13185;50.872;5.306;2022-08-19T04:31:58;101041.75;;;17.25;100.00
25238;BME280;13185;50.872;5.306;2022-08-19T04:34:26;101049.19;;;17.23;100.00
25238;BME280;13185;50.872;5.306;2022-08-19T04:36:53;101036.78;;;17.21;100.00
25238;BME280;13185;50.872;5.306;2022-08-19T04:39:22;101038.47;;;17.22;100.00
25238;BME280;13185;50.872;5.306;2022-08-19T04:41:49;101037.78;;;17.20;100.00
25238;BME280;13185;50.872;5.306;2022-08-19T04:44:35;101043.31;;;17.18;100.00
25238;BME280;13185;50.872;5.306;2022-08-19T04:47:01;101052.72;;;17.14;100.00
25238;BME280;13185;50.872;5.306;2022-08-19T04:49:31;101053.13;;;17.10;100.00
25238;BME280;13185;50.872;5.306;2022-08-19T04:51:56;101058.94;;;17.05;100.00
25238;BME280;13185;50.872;5.306;2022-08-19T04:54:24;101049.09;;;17.04;100.00
25238;BME280;13185;50.872;5.306;2022-08-19T04:56:51;101060.09;;;17.02;100.00
25238;BME280;13185;50.872;5.306;2022-08-19T04:59:18;101069.22;;;17.01;100.00
25238;BME280;13185;50.872;5.306;2022-08-19T05:01:46;101065.66;;;17.01;100.00
25238;BME280;13185;50.872;5.306;2022-08-19T05:04:17;101067.50;;;17.00;100.00
25238;BME280;13185;50.872;5.306;2022-08-19T05:06:43;101076.34;;;17.02;100.00
25238;BME280;13185;50.872;5.306;2022-08-19T05:09:09;101081.91;;;17.01;100.00
25238;BME280;13185;50.872;5.306;2022-08-19T05:11:37;101088.31;;;17.00;100.00
25238;BME280;13185;50.872;5.306;2022-08-19T05:14:06;101097.31;;;17.00;100.00
25238;BME280;13185;50.872;5.306;2022-08-19T05:16:32;101097.03;;;17.03;100.00
25238;BME280;13185;50.872;5.306;2022-08-19T05:18:57;101109.56;;;17.05;100.00
25238;BME280;13185;50.872;5.306;2022-08-19T05:21:43;101107.72;;;17.05;100.00
25238;BME280;13185;50.872;5.306;2022-08-19T05:24:28;101109.44;;;17.06;100.00
25238;BME280;13185;50.872;5.306;2022-08-19T05:26:55;101106.88;;;17.05;100.00
25238;BME280;13185;50.872;5.306;2022-08-19T05:29:26;101113.13;;;17.05;100.00
25238;BME280;13185;50.872;5.306;2022-08-19T05:31:53;101104.88;;;17.07;100.00
25238;BME280;13185;50.872;5.306;2022-08-19T05:34:20;101121.84;;;17.09;100.00
25238;BME280;13185;50.872;5.306;2022-08-19T05:36:48;101117.03;;;17.12;100.00
25238;BME280;13185;50.872;5.306;2022-08-19T05:39:17;101112.19;;;17.16;100.00
25238;BME280;13185;50.872;5.306;2022-08-19T05:41:45;101103.66;;;17.20;100.00
25238;BME280;13185;50.872;5.306;2022-08-19T05:44:11;101107.94;;;17.23;100.00
25238;BME280;13185;50.872;5.306;2022-08-19T05:46:37;101117.66;;;17.25;100.00
25238;BME280;13185;50.872;5.306;2022-08-19T05:49:05;101118.84;;;17.33;100.00
25238;BME280;13185;50.872;5.306;2022-08-19T05:51:32;101118.41;;;17.37;100.00
25238;BME280;13185;50.872;5.306;2022-08-19T05:53:59;101124.59;;;17.49;100.00
25238;BME280;13185;50.872;5.306;2022-08-19T05:56:25;101120.34;;;17.56;100.00
25238;BME280;13185;50.872;5.306;2022-08-19T05:58:50;101121.75;;;17.60;100.00
25238;BME280;13185;50.872;5.306;2022-08-19T06:01:18;101113.38;;;17.63;100.00
25238;BME280;13185;50.872;5.306;2022-08-19T06:03:44;101121.84;;;17.70;100.00
25238;BME280;13185;50.872;5.306;2022-08-19T06:06:11;101115.28;;;17.72;100.00
25238;BME280;13185;50.872;5.306;2022-08-19T06:08:37;101119.97;;;17.70;100.00
25238;BME280;13185;50.872;5.306;2022-08-19T06:13:38;101120.22;;;17.67;100.00
25238;BME280;13185;50.872;5.306;2022-08-19T06:16:03;101123.09;;;17.66;100.00
25238;BME280;13185;50.872;5.306;2022-08-19T06:18:30;101135.38;;;17.70;100.00
25238;BME280;13185;50.872;5.306;2022-08-19T06:20:55;101134.00;;;17.75;100.00
25238;BME280;13185;50.872;5.306;2022-08-19T06:23:21;101139.59;;;17.83;100.00
25238;BME280;13185;50.872;5.306;2022-08-19T06:25:46;101130.00;;;17.89;100.00
25238;BME280;13185;50.872;5.306;2022-08-19T06:28:11;101129.03;;;18.00;100.00
25238;BME280;13185;50.872;5.306;2022-08-19T06:30:37;101121.34;;;18.05;100.00
25238;BME280;13185;50.872;5.306;2022-08-19T06:33:03;101118.47;;;18.06;100.00
25238;BME280;13185;50.872;5.306;2022-08-19T06:35:29;101120.47;;;18.04;100.00
25238;BME280;13185;50.872;5.306;2022-08-19T06:37:55;101119.63;;;18.04;100.00
25238;BME280;13185;50.872;5.306;2022-08-19T06:40:20;101115.63;;;18.08;100.00
25238;BME280;13185;50.872;5.306;2022-08-19T06:42:46;101119.34;;;18.16;100.00
25238;BME280;13185;50.872;5.306;2022-08-19T06:45:11;101120.06;;;18.18;100.00
25238;BME280;13185;50.872;5.306;2022-08-19T06:47:37;101120.06;;;18.18;100.00
25238;BME280;13185;50.872;5.306;2022-08-19T06:50:03;101124.91;;;18.15;100.00
25238;BME280;13185;50.872;5.306;2022-08-19T06:52:34;101127.91;;;18.12;100.00
25238;BME280;13185;50.872;5.306;2022-08-19T06:55:01;101121.22;;;18.16;100.00
25238;BME280;13185;50.872;5.306;2022-08-19T06:57:27;101127.06;;;18.21;100.00
25238;BME280;13185;50.872;5.306;2022-08-19T06:59:58;101138.63;;;18.33;100.00
25238;BME280;13185;50.872;5.306;2022-08-19T07:02:25;101147.22;;;18.48;100.00
25238;BME280;13185;50.872;5.306;2022-08-19T07:04:52;101139.78;;;18.59;100.00
25238;BME280;13185;50.872;5.306;2022-08-19T07:07:19;101140.94;;;18.66;100.00
25238;BME280;13185;50.872;5.306;2022-08-19T07:09:48;101144.38;;;18.68;100.00
25238;BME280;13185;50.872;5.306;2022-08-19T07:12:14;101144.94;;;18.72;100.00
25238;BME280;13185;50.872;5.306;2022-08-19T07:14:40;101134.19;;;18.80;100.00
25238;BME280;13185;50.872;5.306;2022-08-19T07:17:09;101146.63;;;18.83;100.00
25238;BME280;13185;50.872;5.306;2022-08-19T07:19:36;101150.88;;;18.95;100.00
25238;BME280;13185;50.872;5.306;2022-08-19T07:22:04;101156.91;;;18.98;100.00
25238;BME280;13185;50.872;5.306;2022-08-19T07:24:30;101158.00;;;19.06;100.00
25238;BME280;13185;50.872;5.306;2022-08-19T07:26:58;101154.44;;;19.05;99.65
25238;BME280;13185;50.872;5.306;2022-08-19T07:29:26;101156.16;;;19.06;98.69
25238;BME280;13185;50.872;5.306;2022-08-19T07:31:53;101154.88;;;19.10;98.69
25238;BME280;13185;50.872;5.306;2022-08-19T07:34:23;101157.84;;;19.17;98.54
25238;BME280;13185;50.872;5.306;2022-08-19T07:36:49;101165.88;;;19.18;97.48
25238;BME280;13185;50.872;5.306;2022-08-19T07:39:20;101162.25;;;19.27;97.93
25238;BME280;13185;50.872;5.306;2022-08-19T07:41:47;101169.66;;;19.35;97.05
25238;BME280;13185;50.872;5.306;2022-08-19T07:44:14;101158.63;;;19.37;96.53
25238;BME280;13185;50.872;5.306;2022-08-19T07:46:42;101161.47;;;19.45;96.10
25238;BME280;13185;50.872;5.306;2022-08-19T07:49:10;101158.88;;;19.53;95.57
25238;BME280;13185;50.872;5.306;2022-08-19T07:51:49;101160.56;;;19.64;95.44
25238;BME280;13185;50.872;5.306;2022-08-19T07:54:15;101163.63;;;19.78;94.10
25238;BME280;13185;50.872;5.306;2022-08-19T07:56:41;101164.47;;;19.79;93.24
25238;BME280;13185;50.872;5.306;2022-08-19T07:59:07;101169.34;;;19.85;93.91
25238;BME280;13185;50.872;5.306;2022-08-19T08:01:34;101174.56;;;19.96;92.39
25238;BME280;13185;50.872;5.306;2022-08-19T08:03:59;101176.28;;;19.97;91.44
25238;BME280;13185;50.872;5.306;2022-08-19T08:06:44;101180.00;;;19.96;91.17
25238;BME280;13185;50.872;5.306;2022-08-19T08:09:33;101177.28;;;19.96;90.43
25238;BME280;13185;50.872;5.306;2022-08-19T08:12:04;101179.69;;;19.99;90.57
25238;BME280;13185;50.872;5.306;2022-08-19T08:14:34;101184.69;;;20.04;90.50
25238;BME280;13185;50.872;5.306;2022-08-19T08:17:01;101185.94;;;20.09;90.36
25238;BME280;13185;50.872;5.306;2022-08-19T08:19:27;101195.69;;;20.12;89.49
25238;BME280;13185;50.872;5.306;2022-08-19T08:21:55;101183.84;;;20.21;89.28
25238;BME280;13185;50.872;5.306;2022-08-19T08:24:22;101192.53;;;20.34;89.21
25238;BME280;13185;50.872;5.306;2022-08-19T08:26:47;101191.16;;;20.48;88.14
25238;BME280;13185;50.872;5.306;2022-08-19T08:29:14;101197.91;;;20.62;87.28
25238;BME280;13185;50.872;5.306;2022-08-19T08:31:43;101188.81;;;20.71;87.01
25238;BME280;13185;50.872;5.306;2022-08-19T08:34:10;101183.59;;;20.78;85.87
25238;BME280;13185;50.872;5.306;2022-08-19T08:36:40;101181.09;;;20.84;86.00
25238;BME280;13185;50.872;5.306;2022-08-19T08:39:15;101188.03;;;20.79;85.30
25238;BME280;13185;50.872;5.306;2022-08-19T08:42:16;101190.41;;;20.82;85.38
25238;BME280;13185;50.872;5.306;2022-08-19T08:44:59;101186.28;;;20.95;85.74
25238;BME280;13185;50.872;5.306;2022-08-19T08:47:31;101186.03;;;21.07;84.98
25238;BME280;13185;50.872;5.306;2022-08-19T08:50:13;101198.16;;;21.30;84.83
25238;BME280;13185;50.872;5.306;2022-08-19T08:52:52;101191.13;;;21.53;83.24
25238;BME280;13185;50.872;5.306;2022-08-19T08:55:21;101184.91;;;21.69;81.72
25238;BME280;13185;50.872;5.306;2022-08-19T09:00:22;101186.53;;;21.96;80.71
25238;BME280;13185;50.872;5.306;2022-08-19T09:02:48;101187.47;;;22.13;80.14
25238;BME280;13185;50.872;5.306;2022-08-19T09:05:14;101182.03;;;22.21;79.34
25238;BME280;13185;50.872;5.306;2022-08-19T09:08:01;101183.19;;;22.18;78.14
25238;BME280;13185;50.872;5.306;2022-08-19T09:15:56;101191.47;;;21.93;78.73
25238;BME280;13185;50.872;5.306;2022-08-19T09:18:23;101188.19;;;21.81;78.51
25238;BME280;13185;50.872;5.306;2022-08-19T09:20:49;101202.13;;;21.78;78.32
25238;BME280;13185;50.872;5.306;2022-08-19T09:23:15;101193.94;;;21.78;78.66
25238;BME280;13185;50.872;5.306;2022-08-19T09:25:40;101194.84;;;21.78;78.79
25238;BME280;13185;50.872;5.306;2022-08-19T09:28:06;101187.84;;;21.84;78.28
25238;BME280;13185;50.872;5.306;2022-08-19T09:30:40;101196.56;;;21.87;77.08
25238;BME280;13185;50.872;5.306;2022-08-19T09:33:06;101187.91;;;22.00;77.75
25238;BME280;13185;50.872;5.306;2022-08-19T09:35:32;101184.94;;;22.28;76.38
25238;BME280;13185;50.872;5.306;2022-08-19T09:37:59;101174.41;;;22.41;75.58
25238;BME280;13185;50.872;5.306;2022-08-19T09:40:25;101182.59;;;22.57;75.78
25238;BME280;13185;50.872;5.306;2022-08-19T09:42:51;101184.31;;;22.58;74.55
25238;BME280;13185;50.872;5.306;2022-08-19T09:45:19;101177.81;;;22.59;74.99
25238;BME280;13185;50.872;5.306;2022-08-19T09:47:47;101181.94;;;22.63;74.31
25238;BME280;13185;50.872;5.306;2022-08-19T09:50:13;101183.94;;;22.61;74.51
25238;BME280;13185;50.872;5.306;2022-08-19T09:52:38;101190.44;;;22.60;74.28
25238;BME280;13185;50.872;5.306;2022-08-19T09:55:05;101190.78;;;22.57;74.17
25238;BME280;13185;50.872;5.306;2022-08-19T09:57:31;101188.22;;;22.56;74.35
25238;BME280;13185;50.872;5.306;2022-08-19T09:59:56;101177.13;;;22.57;73.92
25238;BME280;13185;50.872;5.306;2022-08-19T10:02:22;101185.34;;;22.65;73.72
25238;BME280;13185;50.872;5.306;2022-08-19T10:04:47;101182.94;;;22.79;72.17
25238;BME280;13185;50.872;5.306;2022-08-19T10:07:42;101179.41;;;22.94;71.01
25238;BME280;13185;50.872;5.306;2022-08-19T10:10:08;101188.09;;;23.14;71.03
25238;BME280;13185;50.872;5.306;2022-08-19T10:12:34;101191.81;;;23.29;69.30
25238;BME280;13185;50.872;5.306;2022-08-19T10:15:01;101179.16;;;23.37;68.66
25238;BME280;13185;50.872;5.306;2022-08-19T10:17:27;101175.22;;;23.39;68.49
25238;BME280;13185;50.872;5.306;2022-08-19T10:19:52;101174.53;;;23.37;68.28
25238;BME280;13185;50.872;5.306;2022-08-19T10:22:18;101184.28;;;23.40;68.61
25238;BME280;13185;50.872;5.306;2022-08-19T10:24:45;101165.75;;;23.50;68.17
25238;BME280;13185;50.872;5.306;2022-08-19T10:27:11;101170.03;;;23.60;66.50
25238;BME280;13185;50.872;5.306;2022-08-19T10:29:38;101166.06;;;23.71;66.50
25238;BME280;13185;50.872;5.306;2022-08-19T10:32:07;101167.56;;;23.82;65.78
25238;BME280;13185;50.872;5.306;2022-08-19T10:37:51;101173.47;;;23.94;65.10
25238;BME280;13185;50.872;5.306;2022-08-19T10:40:17;101170.03;;;24.00;65.10
25238;BME280;13185;50.872;5.306;2022-08-19T10:42:42;101172.97;;;23.98;64.78
25238;BME280;13185;50.872;5.306;2022-08-19T10:45:10;101174.31;;;24.02;65.10
25238;BME280;13185;50.872;5.306;2022-08-19T10:47:35;101177.72;;;24.04;65.60
25238;BME280;13185;50.872;5.306;2022-08-19T10:50:02;101162.75;;;24.15;65.25
25238;BME280;13185;50.872;5.306;2022-08-19T10:52:48;101158.72;;;24.34;64.78
25238;BME280;13185;50.872;5.306;2022-08-19T10:55:14;101158.78;;;24.48;64.25
25238;BME280;13185;50.872;5.306;2022-08-19T10:57:58;101156.47;;;24.37;63.90
25238;BME280;13185;50.872;5.306;2022-08-19T11:00:24;101168.84;;;24.33;64.28
25238;BME280;13185;50.872;5.306;2022-08-19T11:02:50;101158.47;;;24.43;64.29
25238;BME280;13185;50.872;5.306;2022-08-19T11:05:16;101160.38;;;24.66;63.95
25238;BME280;13185;50.872;5.306;2022-08-19T11:07:43;101159.94;;;24.77;62.89
25238;BME280;13185;50.872;5.306;2022-08-19T11:10:11;101165.22;;;24.79;62.61
25238;BME280;13185;50.872;5.306;2022-08-19T11:12:39;101157.75;;;24.72;63.08
25238;BME280;13185;50.872;5.306;2022-08-19T11:15:09;101146.41;;;24.75;62.99
25238;BME280;13185;50.872;5.306;2022-08-19T11:17:37;101150.97;;;24.83;62.85
25238;BME280;13185;50.872;5.306;2022-08-19T11:20:08;101153.66;;;24.91;63.00
25238;BME280;13185;50.872;5.306;2022-08-19T11:22:34;101147.19;;;24.99;62.87
25238;BME280;13185;50.872;5.306;2022-08-19T11:25:00;101146.78;;;25.10;63.13
25238;BME280;13185;50.872;5.306;2022-08-19T11:27:25;101146.81;;;25.25;62.82
25238;BME280;13185;50.872;5.306;2022-08-19T11:29:51;101146.41;;;25.28;62.65
25238;BME280;13185;50.872;5.306;2022-08-19T11:32:18;101146.34;;;25.36;62.75
25238;BME280;13185;50.872;5.306;2022-08-19T11:34:43;101152.28;;;25.40;62.09
25238;BME280;13185;50.872;5.306;2022-08-19T11:37:12;101147.28;;;25.43;62.62
25238;BME280;13185;50.872;5.306;2022-08-19T11:39:37;101143.31;;;25.46;62.53
25238;BME280;13185;50.872;5.306;2022-08-19T11:42:05;101137.44;;;25.49;62.53
25238;BME280;13185;50.872;5.306;2022-08-19T11:44:51;101138.59;;;25.54;62.71
25238;BME280;13185;50.872;5.306;2022-08-19T11:47:18;101136.41;;;25.65;62.64
25238;BME280;13185;50.872;5.306;2022-08-19T11:49:43;101145.84;;;25.62;61.97
25238;BME280;13185;50.872;5.306;2022-08-19T11:52:09;101136.28;;;25.58;62.52
25238;BME280;13185;50.872;5.306;2022-08-19T11:54:34;101132.25;;;25.54;62.64
25238;BME280;13185;50.872;5.306;2022-08-19T11:57:03;101144.81;;;25.48;62.91
25238;BME280;13185;50.872;5.306;2022-08-19T11:59:28;101142.25;;;25.47;63.07
25238;BME280;13185;50.872;5.306;2022-08-19T12:01:54;101138.09;;;25.51;63.22
25238;BME280;13185;50.872;5.306;2022-08-19T12:04:22;101146.22;;;25.59;63.08
25238;BME280;13185;50.872;5.306;2022-08-19T12:06:48;101140.28;;;25.55;62.70
25238;BME280;13185;50.872;5.306;2022-08-19T12:09:15;101135.84;;;25.54;63.03
25238;BME280;13185;50.872;5.306;2022-08-19T12:11:42;101134.28;;;25.52;63.12
25238;BME280;13185;50.872;5.306;2022-08-19T12:14:12;101139.78;;;25.52;63.39
25238;BME280;13185;50.872;5.306;2022-08-19T12:16:38;101140.06;;;25.42;63.83
25238;BME280;13185;50.872;5.306;2022-08-19T12:19:04;101138.88;;;25.45;63.25
25238;BME280;13185;50.872;5.306;2022-08-19T12:21:32;101132.69;;;25.43;62.92
25238;BME280;13185;50.872;5.306;2022-08-19T12:24:00;101135.06;;;25.46;63.16
25238;BME280;13185;50.872;5.306;2022-08-19T12:26:27;101142.25;;;25.47;64.09
25238;BME280;13185;50.872;5.306;2022-08-19T12:28:54;101141.88;;;25.50;64.28
25238;BME280;13185;50.872;5.306;2022-08-19T12:31:20;101132.25;;;25.54;63.48
25238;BME280;13185;50.872;5.306;2022-08-19T12:33:46;101137.91;;;25.38;63.92
25238;BME280;13185;50.872;5.306;2022-08-19T12:36:13;101134.75;;;25.11;65.28
25238;BME280;13185;50.872;5.306;2022-08-19T12:38:40;101141.41;;;25.02;66.35
25238;BME280;13185;50.872;5.306;2022-08-19T12:41:10;101142.94;;;24.96;66.24
25238;BME280;13185;50.872;5.306;2022-08-19T12:43:37;101142.53;;;24.85;66.84
25238;BME280;13185;50.872;5.306;2022-08-19T12:46:07;101134.69;;;24.82;67.50
25238;BME280;13185;50.872;5.306;2022-08-19T12:48:33;101133.25;;;24.71;67.20
25238;BME280;13185;50.872;5.306;2022-08-19T12:50:59;101128.44;;;24.73;67.21
25238;BME280;13185;50.872;5.306;2022-08-19T12:53:25;101138.16;;;24.75;66.88
25238;BME280;13185;50.872;5.306;2022-08-19T12:55:55;101134.97;;;24.87;66.77
25238;BME280;13185;50.872;5.306;2022-08-19T12:58:21;101139.53;;;24.94;67.02
25238;BME280;13185;50.872;5.306;2022-08-19T13:00:47;101142.47;;;24.93;66.96
25238;BME280;13185;50.872;5.306;2022-08-19T13:03:13;101139.44;;;24.88;67.77
25238;BME280;13185;50.872;5.306;2022-08-19T13:05:39;101136.84;;;24.71;68.67
25238;BME280;13185;50.872;5.306;2022-08-19T13:08:04;101132.03;;;24.73;69.02
25238;BME280;13185;50.872;5.306;2022-08-19T13:10:32;101141.84;;;24.68;69.77